Time;durP1;ratioP1;P1;durP2;ratioP2;P2;SDS_P1;SDS_P2;PMS_P1;PMS_P2;Temp;Humidity;BMP_temperature;BMP_pressure;BME280_temperature;BME280_humidity;BME280_pressure;Samples;Min_cycle;Max_cycle;Signal;HPM_P1;HPM_P2
2022/09/06 00:02:18;;;;;;;3.70;2.90;;;;;;;19.00;72.54;98684.34;4939121;28;20739;-61
2022/09/06 00:04:45;;;;;;;7.40;3.27;;;;;;;19.01;72.16;98682.50;4937086;28;20243;-61
2022/09/06 00:07:13;;;;;;;7.70;2.93;;;;;;;19.10;72.74;98683.09;4937525;28;20814;-61
2022/09/06 00:09:40;;;;;;;3.63;2.90;;;;;;;19.17;72.79;98681.25;4937357;28;20756;-61
2022/09/06 00:12:07;;;;;;;3.27;2.80;;;;;;;19.12;72.85;98673.13;4938287;28;20234;-61
2022/09/06 00:14:33;;;;;;;7.63;2.80;;;;;;;19.10;72.73;98672.53;4937297;28;20241;-61
2022/09/06 00:17:19;;;;;;;3.93;2.90;;;;;;;19.07;72.60;98681.69;4937720;28;20242;-61
2022/09/06 00:19:46;;;;;;;3.50;2.83;;;;;;;19.03;72.61;98678.66;4936032;28;20233;-61
2022/09/06 00:22:14;;;;;;;2.97;2.63;;;;;;;19.06;72.47;98681.91;4938966;28;20240;-61
2022/09/06 00:24:40;;;;;;;5.17;3.00;;;;;;;19.17;72.48;98683.91;4936255;28;20753;-62
2022/09/06 00:27:08;;;;;;;4.90;2.67;;;;;;;19.12;71.90;98673.97;4940896;28;20242;-61
2022/09/06 00:29:53;;;;;;;7.17;2.97;;;;;;;19.09;72.25;98673.53;4934762;28;20588;-61
2022/09/06 00:32:20;;;;;;;3.07;2.70;;;;;;;19.08;71.78;98671.94;4938893;28;20297;-61
2022/09/06 00:34:47;;;;;;;5.07;3.10;;;;;;;19.05;71.83;98667.84;4938462;28;20238;-61
2022/09/06 00:37:15;;;;;;;3.87;2.90;;;;;;;19.03;72.16;98668.09;4938451;28;21158;-61
2022/09/06 00:39:42;;;;;;;6.50;3.23;;;;;;;19.05;72.40;98669.69;4935380;28;20223;-61
2022/09/06 00:42:09;;;;;;;5.70;2.70;;;;;;;19.09;73.38;98665.59;4939171;28;20249;-61
2022/09/06 00:44:36;;;;;;;3.73;2.70;;;;;;;19.08;73.39;98662.16;4936064;28;20776;-61
2022/09/06 00:47:04;;;;;;;5.53;3.03;;;;;;;19.14;72.74;98656.03;4939053;28;20232;-61
2022/09/06 00:49:34;;;;;;;4.40;2.80;;;;;;;19.16;73.07;98664.59;4935837;28;20323;-62
2022/09/06 00:52:04;;;;;;;4.53;2.93;;;;;;;19.25;72.99;98657.25;4939180;28;20234;-61
2022/09/06 00:54:32;;;;;;;4.70;2.73;;;;;;;19.29;72.69;98663.75;4935686;28;20276;-61
2022/09/06 00:57:00;;;;;;;4.73;2.80;;;;;;;19.36;71.95;98674.34;4940048;28;20232;-61
2022/09/06 00:59:31;;;;;;;5.37;3.00;;;;;;;19.52;70.74;98720.72;4936638;28;20247;-61
2022/09/06 01:01:58;;;;;;;4.67;3.80;;;;;;;19.77;70.04;98829.44;4932924;28;20685;-61
2022/09/06 01:04:26;;;;;;;11.00;5.00;;;;;;;19.61;72.66;98827.22;4934486;28;20362;-61
2022/09/06 01:07:01;;;;;;;9.63;5.13;;;;;;;19.48;74.00;98796.28;4938722;28;20243;-61
2022/09/06 01:09:47;;;;;;;10.13;5.67;;;;;;;19.36;76.98;98816.44;4931772;28;20316;-61
2022/09/06 01:12:26;;;;;;;8.10;6.17;;;;;;;19.26;77.23;98849.41;4940487;28;20246;-61
2022/09/06 01:15:11;;;;;;;8.97;5.80;;;;;;;19.20;77.72;98847.56;4935589;28;20235;-61
2022/09/06 01:17:50;;;;;;;9.07;5.60;;;;;;;19.14;77.81;98841.25;4934492;28;20263;-61
2022/09/06 01:20:31;;;;;;;7.00;5.47;;;;;;;19.13;78.51;98857.31;4938303;28;20253;-61
2022/09/06 01:23:33;;;;;;;6.67;5.40;;;;;;;19.07;79.20;98868.72;4936448;28;20236;-61
2022/09/06 01:26:16;;;;;;;9.93;5.70;;;;;;;19.05;79.02;98884.78;4911685;28;20300;-61
2022/09/06 01:28:45;;;;;;;7.60;5.80;;;;;;;19.06;79.47;98880.31;4935934;28;23754;-61
2022/09/06 01:31:24;;;;;;;7.03;5.30;;;;;;;19.08;80.76;98857.94;4941244;28;20285;-61
2022/09/06 01:33:58;;;;;;;10.30;5.43;;;;;;;19.01;82.70;98855.28;4935887;28;20244;-61
2022/09/06 01:36:31;;;;;;;8.83;5.57;;;;;;;18.99;84.25;98859.97;4935170;28;20324;-61
2022/09/06 01:38:58;;;;;;;7.63;5.47;;;;;;;18.98;83.15;98858.34;4937983;28;20247;-61
2022/09/06 01:41:25;;;;;;;5.03;4.50;;;;;;;19.01;82.01;98844.69;4936354;28;20297;-61
2022/09/06 01:43:55;;;;;;;5.23;4.33;;;;;;;19.07;80.28;98845.72;4938389;28;20232;-61
2022/09/06 01:46:30;;;;;;;8.93;4.47;;;;;;;19.15;79.03;98847.34;4925535;28;20250;-61
2022/09/06 01:49:14;;;;;;;10.00;4.50;;;;;;;19.16;80.83;98841.88;4935429;28;20243;-61
2022/09/06 01:51:55;;;;;;;7.17;4.30;;;;;;;19.15;79.94;98832.31;4935243;28;20709;-61
2022/09/06 01:54:33;;;;;;;11.53;4.97;;;;;;;19.16;80.11;98826.00;4927709;28;20325;-61
2022/09/06 01:57:14;;;;;;;5.50;4.33;;;;;;;19.15;80.39;98821.72;4934844;28;20235;-61
2022/09/06 01:59:57;;;;;;;7.63;4.20;;;;;;;19.15;79.99;98827.00;4932079;28;20312;-61
2022/09/06 02:02:34;;;;;;;10.83;4.27;;;;;;;19.15;80.41;98816.44;4933599;28;20703;-61
2022/09/06 02:05:06;;;;;;;5.00;4.50;;;;;;;19.13;81.43;98813.16;4936568;28;20255;-61
2022/09/06 02:07:35;;;;;;;7.50;4.20;;;;;;;19.06;81.28;98807.06;4934266;28;20608;-61
2022/09/06 02:10:13;;;;;;;4.67;4.20;;;;;;;19.06;80.57;98808.91;4936666;28;20240;-61
2022/09/06 02:12:44;;;;;;;6.87;4.87;;;;;;;19.07;79.72;98799.94;4936715;28;20235;-61
2022/09/06 02:15:16;;;;;;;9.00;4.20;;;;;;;19.03;79.35;98800.34;4937429;28;20336;-61
2022/09/06 02:17:47;;;;;;;4.60;4.00;;;;;;;19.03;79.27;98799.53;4936246;28;20226;-61
2022/09/06 02:20:18;;;;;;;5.43;3.90;;;;;;;19.02;79.88;98789.94;4936603;28;20692;-61
2022/09/06 02:22:48;;;;;;;8.17;4.07;;;;;;;18.97;80.04;98785.28;4934955;28;20244;-61
2022/09/06 02:25:22;;;;;;;6.60;3.97;;;;;;;18.92;80.44;98773.63;4934815;28;20340;-61
2022/09/06 02:27:49;;;;;;;6.20;4.27;;;;;;;18.86;80.41;98773.41;4935002;28;20246;-61
2022/09/06 02:30:17;;;;;;;7.20;4.40;;;;;;;18.86;80.45;98772.63;4936665;28;20245;-61
2022/09/06 02:32:50;;;;;;;5.27;4.20;;;;;;;18.79;80.26;98777.88;4934820;28;20323;-61
2022/09/06 02:35:17;;;;;;;7.03;4.20;;;;;;;18.76;80.22;98780.91;4936741;28;20240;-61
2022/09/06 02:37:45;;;;;;;6.60;4.30;;;;;;;18.81;79.22;98778.50;4916565;28;20252;-61
2022/09/06 02:40:12;;;;;;;6.00;4.17;;;;;;;18.78;79.31;98776.25;4936645;28;20243;-61
2022/09/06 02:42:40;;;;;;;4.40;3.70;;;;;;;18.79;79.68;98779.72;4933801;28;20318;-60
2022/09/06 02:45:08;;;;;;;6.40;3.70;;;;;;;18.82;80.23;98781.97;4935813;28;20238;-61
2022/09/06 02:47:36;;;;;;;9.77;4.43;;;;;;;18.85;80.77;98776.28;4932424;28;20676;-61
2022/09/06 02:50:03;;;;;;;8.90;5.20;;;;;;;18.83;80.23;98773.03;4935865;28;20697;-61
2022/09/06 02:52:29;;;;;;;4.57;4.03;;;;;;;18.77;80.50;98756.09;4929651;28;20229;-61
2022/09/06 02:54:56;;;;;;;5.67;3.87;;;;;;;18.79;80.18;98762.00;4936914;28;20456;-61
2022/09/06 02:57:23;;;;;;;8.27;4.27;;;;;;;18.80;81.12;98755.72;4936599;28;20231;-61
2022/09/06 02:59:50;;;;;;;5.43;3.73;;;;;;;18.83;82.20;98749.22;4933538;28;20693;-61
2022/09/06 03:04:54;;;;;;;5.20;4.07;;;;;;;18.78;81.60;98752.44;5237987;23;20274;-50
2022/09/06 03:07:20;;;;;;;7.97;4.07;;;;;;;18.78;81.42;98746.38;4940041;28;20237;-50
2022/09/06 03:09:47;;;;;;;6.57;3.90;;;;;;;18.79;81.58;98751.44;4944082;28;20278;-50
2022/09/06 03:12:14;;;;;;;7.77;3.50;;;;;;;18.83;81.37;98749.22;4942847;28;20233;-50
2022/09/06 03:14:40;;;;;;;4.87;3.53;;;;;;;18.84;81.08;98749.00;4938177;28;20236;-49
2022/09/06 03:17:07;;;;;;;4.07;3.57;;;;;;;18.84;80.94;98761.41;4942372;28;20313;-51
2022/09/06 03:19:34;;;;;;;10.80;3.50;;;;;;;18.91;79.63;98756.13;4940990;28;20637;-50
2022/09/06 03:22:02;;;;;;;8.03;3.97;;;;;;;18.85;81.74;98758.56;4944423;28;20234;-51
2022/09/06 03:24:28;;;;;;;3.93;3.53;;;;;;;18.84;81.25;98750.84;4940216;28;20232;-51
2022/09/06 03:26:55;;;;;;;6.10;3.60;;;;;;;18.82;81.40;98752.88;4944009;28;20243;-51
2022/09/06 03:29:22;;;;;;;5.07;3.83;;;;;;;18.81;81.27;98754.69;4944815;28;20248;-50
2022/09/06 03:31:48;;;;;;;6.83;3.57;;;;;;;18.81;80.75;98756.53;4940985;28;20271;-50
2022/09/06 03:34:15;;;;;;;4.90;3.73;;;;;;;18.80;81.27;98762.84;4942470;28;20236;-53
2022/09/06 03:36:42;;;;;;;5.90;4.27;;;;;;;18.74;81.33;98754.69;4940963;28;20239;-50
2022/09/06 03:39:10;;;;;;;4.47;4.00;;;;;;;18.68;81.51;98755.50;4942062;28;20288;-51
2022/09/06 03:41:37;;;;;;;4.43;3.87;;;;;;;18.66;81.53;98748.75;4939627;28;20763;-50
2022/09/06 03:44:22;;;;;;;6.30;4.07;;;;;;;18.63;82.21;98749.16;4942520;28;20781;-50
2022/09/06 03:46:50;;;;;;;6.60;4.50;;;;;;;18.52;82.07;98743.47;4939794;28;20246;-53
2022/09/06 03:49:17;;;;;;;7.30;4.00;;;;;;;18.45;82.81;98742.63;4942804;28;20289;-50
2022/09/06 03:51:43;;;;;;;5.23;3.73;;;;;;;18.40;83.06;98745.06;4922213;28;34134;-52
2022/09/06 03:54:11;;;;;;;6.63;3.83;;;;;;;18.31;82.96;98747.06;4942251;28;20282;-51
2022/09/06 03:56:39;;;;;;;4.93;3.53;;;;;;;18.27;82.30;98751.09;4939671;28;20244;-50
2022/09/06 03:59:06;;;;;;;4.33;3.93;;;;;;;18.14;82.89;98747.41;4942366;28;20299;-51
2022/09/06 04:01:32;;;;;;;8.53;3.73;;;;;;;18.08;82.44;98745.53;4939906;28;20237;-50
2022/09/06 04:04:00;;;;;;;6.87;4.10;;;;;;;17.97;83.52;98744.25;4941789;28;20274;-51
2022/09/06 04:06:27;;;;;;;7.97;3.90;;;;;;;17.85;83.74;98749.28;4939453;28;20303;-50
2022/09/06 04:08:53;;;;;;;6.77;3.83;;;;;;;17.82;84.11;98751.47;4944408;28;20244;-50
2022/09/06 04:11:22;;;;;;;6.07;4.00;;;;;;;17.73;84.21;98760.56;4941988;28;20323;-50
2022/09/06 04:13:48;;;;;;;7.10;4.27;;;;;;;17.60;84.29;98763.94;4940330;28;20279;-51
2022/09/06 04:16:17;;;;;;;9.37;4.30;;;;;;;17.53;85.29;98761.25;4943664;28;20227;-50
2022/09/06 04:18:44;;;;;;;6.03;4.50;;;;;;;17.48;85.87;98753.13;4940332;28;20236;-53
2022/09/06 04:21:11;;;;;;;4.80;4.30;;;;;;;17.43;86.71;98751.03;4942773;28;20250;-51
2022/09/06 04:23:38;;;;;;;5.67;4.90;;;;;;;17.40;86.79;98746.16;4941424;28;20313;-52
2022/09/06 04:26:05;;;;;;;6.50;4.67;;;;;;;17.32;86.96;98749.75;4944525;28;20232;-51
2022/09/06 04:28:33;;;;;;;6.23;4.17;;;;;;;17.23;87.61;98743.78;4939109;28;20232;-50
2022/09/06 04:31:01;;;;;;;6.07;4.03;;;;;;;17.17;87.72;98751.66;4942761;28;20226;-50
2022/09/06 04:33:30;;;;;;;6.57;4.77;;;;;;;17.14;88.66;98749.41;4940006;28;20241;-52
2022/09/06 04:35:58;;;;;;;6.43;4.80;;;;;;;17.09;89.20;98758.72;4941092;28;20244;-52
2022/09/06 04:38:26;;;;;;;8.80;5.17;;;;;;;16.97;89.79;98753.09;4938327;28;20270;-52
2022/09/06 04:40:54;;;;;;;8.90;4.57;;;;;;;16.93;89.75;98756.28;4945191;28;20237;-52
2022/09/06 04:43:21;;;;;;;5.23;4.53;;;;;;;16.88;90.64;98751.59;4947038;28;20243;-51
2022/09/06 04:45:49;;;;;;;8.00;4.70;;;;;;;16.85;90.21;98759.06;4942407;28;20244;-50
2022/09/06 04:48:16;;;;;;;7.27;4.77;;;;;;;16.83;90.65;98761.91;4946093;28;20243;-52
2022/09/06 04:50:43;;;;;;;6.87;4.40;;;;;;;16.77;91.04;98755.53;4943713;28;20234;-50
2022/09/06 04:53:10;;;;;;;8.33;4.80;;;;;;;16.80;91.15;98754.38;4945365;28;20237;-52
2022/09/06 04:55:37;;;;;;;8.33;5.03;;;;;;;16.81;92.12;98758.63;4942987;28;20231;-50
2022/09/06 04:58:05;;;;;;;7.23;5.03;;;;;;;16.83;91.72;98752.16;4946209;28;20232;-50
2022/09/06 05:00:33;;;;;;;12.53;4.37;;;;;;;16.86;92.07;98752.78;4944798;28;20289;-53
2022/09/06 05:03:01;;;;;;;6.67;4.40;;;;;;;16.89;91.66;98757.69;4945504;28;20226;-53
2022/09/06 05:05:28;;;;;;;7.70;5.00;;;;;;;16.87;90.95;98757.06;4942939;28;20805;-52
2022/09/06 05:07:55;;;;;;;6.03;4.13;;;;;;;16.82;90.57;98753.16;4945306;28;20242;-51
2022/09/06 05:10:23;;;;;;;9.13;4.60;;;;;;;16.80;90.45;98755.16;4943318;28;20682;-51
2022/09/06 05:12:50;;;;;;;7.87;4.60;;;;;;;16.79;90.29;98761.44;4938945;28;20245;-50
2022/09/06 05:15:18;;;;;;;8.40;4.77;;;;;;;16.80;91.29;98770.19;4945492;28;20240;-50
2022/09/06 05:17:44;;;;;;;6.17;4.80;;;;;;;16.80;91.15;98772.81;4944308;28;20239;-51
2022/09/06 05:20:13;;;;;;;7.03;4.63;;;;;;;16.83;91.31;98770.59;4946390;28;20229;-50
2022/09/06 05:22:40;;;;;;;6.80;4.90;;;;;;;16.81;90.87;98771.81;4925663;28;20228;-50
2022/09/06 05:25:08;;;;;;;7.60;4.73;;;;;;;16.79;91.47;98766.72;4945497;28;20289;-53
2022/09/06 05:27:35;;;;;;;7.17;5.10;;;;;;;16.78;91.78;98765.09;4942121;28;20225;-50
2022/09/06 05:30:02;;;;;;;6.83;4.73;;;;;;;16.82;91.39;98768.97;4945121;28;20231;-50
2022/09/06 05:32:29;;;;;;;6.77;4.73;;;;;;;16.85;91.65;98775.72;4942138;28;20246;-50
2022/09/06 05:34:56;;;;;;;7.43;4.80;;;;;;;16.84;92.22;98776.72;4945006;28;20319;-51
2022/09/06 05:37:24;;;;;;;5.83;4.70;;;;;;;16.86;92.00;98789.69;4942778;28;20338;-53
2022/09/06 05:39:51;;;;;;;12.87;5.27;;;;;;;16.89;92.23;98784.88;4940916;28;20231;-52
2022/09/06 05:42:17;;;;;;;8.17;5.10;;;;;;;16.91;92.49;98789.94;4944505;28;20247;-51
2022/09/06 05:44:44;;;;;;;6.53;4.60;;;;;;;17.01;92.15;98800.19;4942250;28;20243;-52
2022/09/06 05:47:11;;;;;;;6.03;4.67;;;;;;;17.03;92.02;98792.91;4943926;28;20235;-51
2022/09/06 05:49:37;;;;;;;8.83;5.30;;;;;;;17.04;92.05;98805.09;4943505;28;20238;-52
2022/09/06 05:52:04;;;;;;;7.27;5.17;;;;;;;17.08;92.10;98809.81;4946186;28;20731;-51
2022/09/06 05:54:32;;;;;;;9.37;5.23;;;;;;;17.15;92.26;98804.59;4940614;28;20647;-50
2022/09/06 05:56:59;;;;;;;8.10;5.03;;;;;;;17.25;91.68;98802.44;4944243;28;20227;-53
2022/09/06 05:59:26;;;;;;;5.60;4.80;;;;;;;17.43;91.57;98809.09;4940971;28;20231;-52
2022/09/06 06:01:53;;;;;;;6.73;4.93;;;;;;;17.59;91.68;98808.00;4928672;28;20239;-50
2022/09/06 06:04:21;;;;;;;10.07;4.80;;;;;;;17.73;90.69;98814.19;4945272;28;20358;-51
2022/09/06 06:06:48;;;;;;;10.67;4.93;;;;;;;17.85;88.70;98817.09;4941632;28;20228;-50
2022/09/06 06:09:16;;;;;;;6.90;4.47;;;;;;;17.98;88.07;98817.19;4944776;28;20252;-50
2022/09/06 06:11:43;;;;;;;7.00;4.63;;;;;;;18.11;88.19;98813.81;4940890;28;20300;-51
2022/09/06 06:14:10;;;;;;;7.47;4.73;;;;;;;18.15;89.04;98812.41;4944200;28;20256;-50
2022/09/06 06:16:37;;;;;;;7.60;4.90;;;;;;;18.24;89.33;98815.75;4940299;28;20227;-50
2022/09/06 06:19:04;;;;;;;5.47;4.90;;;;;;;18.32;88.43;98821.88;4944953;28;20242;-50
2022/09/06 06:21:33;;;;;;;6.90;4.80;;;;;;;18.37;87.97;98822.09;4941335;28;20231;-50
2022/09/06 06:24:02;;;;;;;7.80;4.70;;;;;;;18.37;87.52;98824.75;4943986;28;20317;-50
2022/09/06 06:26:30;;;;;;;9.43;5.40;;;;;;;18.34;87.00;98831.22;4941362;28;20946;-52
2022/09/06 06:29:00;;;;;;;5.40;4.60;;;;;;;18.40;86.87;98833.06;4944216;28;20239;-53
2022/09/06 06:31:27;;;;;;;7.60;4.53;;;;;;;18.43;85.59;98829.25;4939943;28;20236;-50
2022/09/06 06:33:54;;;;;;;7.77;5.30;;;;;;;18.58;85.66;98829.88;4943095;28;20295;-52
2022/09/06 06:36:23;;;;;;;11.93;5.83;;;;;;;18.62;85.72;98827.69;4943134;28;20230;-51
2022/09/06 06:38:52;;;;;;;11.27;6.00;;;;;;;18.59;85.66;98820.13;4940949;28;20293;-53
2022/09/06 06:41:20;;;;;;;9.87;6.20;;;;;;;18.71;85.73;98826.47;4941427;28;20228;-50
2022/09/06 06:43:46;;;;;;;6.97;5.87;;;;;;;18.81;85.34;98826.09;4939248;28;20253;-50
2022/09/06 06:46:16;;;;;;;7.47;6.03;;;;;;;18.93;85.04;98823.69;4943051;28;20214;-51
2022/09/06 06:48:45;;;;;;;9.47;5.60;;;;;;;19.06;84.38;98828.22;4942363;28;20280;-53
2022/09/06 06:51:13;;;;;;;6.90;5.30;;;;;;;19.13;84.81;98825.56;4942616;28;20226;-52
2022/09/06 06:53:40;;;;;;;8.20;5.00;;;;;;;19.26;84.30;98820.28;4938791;28;20268;-53
2022/09/06 06:56:14;;;;;;;6.27;5.03;;;;;;;19.40;83.54;98817.66;4944344;28;20232;-50
2022/09/06 06:58:41;;;;;;;7.40;4.73;;;;;;;19.54;82.32;98813.97;4940394;28;20232;-52
2022/09/06 07:01:08;;;;;;;6.90;4.97;;;;;;;19.62;81.71;98803.19;4933311;28;20368;-50
2022/09/06 07:03:36;;;;;;;9.87;4.90;;;;;;;19.71;81.02;98813.56;4936916;28;20260;-50
2022/09/06 07:06:03;;;;;;;7.63;4.93;;;;;;;19.88;80.87;98803.34;4942975;28;20708;-50
2022/09/06 07:08:30;;;;;;;9.03;5.07;;;;;;;20.00;79.74;98788.47;4940013;28;20267;-50
2022/09/06 07:10:57;;;;;;;7.63;5.37;;;;;;;20.15;78.59;98800.66;4942963;28;20255;-51
2022/09/06 07:13:23;;;;;;;10.50;5.40;;;;;;;20.33;77.34;98792.00;4943660;28;20631;-51
2022/09/06 07:15:50;;;;;;;7.43;5.13;;;;;;;20.49;76.40;98796.03;4934784;28;20237;-53
2022/09/06 07:18:17;;;;;;;7.03;4.70;;;;;;;20.62;74.30;98803.94;4940417;28;20229;-50
2022/09/06 07:20:45;;;;;;;7.60;4.13;;;;;;;20.80;74.13;98791.81;4939419;28;20230;-51
2022/09/06 07:23:12;;;;;;;6.67;4.67;;;;;;;20.96;73.17;98793.16;4942140;28;20713;-50
2022/09/06 07:25:39;;;;;;;8.23;4.30;;;;;;;21.16;72.39;98797.50;4939428;28;20233;-50
2022/09/06 07:28:06;;;;;;;5.73;4.60;;;;;;;21.35;72.19;98793.06;4942262;28;20231;-50
2022/09/06 07:30:35;;;;;;;7.87;4.60;;;;;;;21.54;71.33;98783.28;4938292;28;20318;-53
2022/09/06 07:33:04;;;;;;;4.80;3.90;;;;;;;21.81;71.33;98770.56;4941689;28;20674;-54
2022/09/06 07:35:30;;;;;;;10.07;4.60;;;;;;;22.05;70.24;98770.72;4939251;28;20230;-56
2022/09/06 07:38:00;;;;;;;5.70;4.10;;;;;;;22.32;68.56;98764.25;4942002;28;20295;-54
2022/09/06 07:40:29;;;;;;;4.50;4.00;;;;;;;22.50;68.42;98758.94;4938920;28;20744;-52
2022/09/06 07:42:56;;;;;;;6.13;4.40;;;;;;;22.69;68.84;98772.19;4937175;28;20222;-54
2022/09/06 07:45:23;;;;;;;8.47;4.40;;;;;;;22.65;69.11;98771.00;4941907;28;20262;-54
2022/09/06 07:47:54;;;;;;;5.73;4.00;;;;;;;22.76;68.60;98780.88;4937326;28;20276;-54
2022/09/06 07:50:21;;;;;;;6.23;4.03;;;;;;;22.85;67.53;98776.88;4942176;28;20249;-51
2022/09/06 07:52:48;;;;;;;7.03;3.73;;;;;;;23.00;66.04;98789.72;4939482;28;20288;-52
2022/09/06 07:55:16;;;;;;;5.60;3.73;;;;;;;23.02;66.91;98800.16;4941160;28;20310;-53
2022/09/06 07:57:42;;;;;;;8.63;4.97;;;;;;;22.88;65.44;98802.19;4940573;28;20701;-53
2022/09/06 08:00:11;;;;;;;8.00;5.37;;;;;;;22.53;66.37;98811.69;4942908;28;20246;-55
2022/09/06 08:02:40;;;;;;;9.93;4.87;;;;;;;22.19;68.14;98813.94;4938694;28;20233;-53
2022/09/06 08:05:08;;;;;;;9.17;4.67;;;;;;;22.17;68.82;98810.69;4941178;28;20245;-52
2022/09/06 08:07:35;;;;;;;6.93;4.70;;;;;;;22.27;69.28;98802.16;4939082;28;20234;-52
2022/09/06 08:10:02;;;;;;;10.47;4.90;;;;;;;22.23;69.17;98795.66;4940940;28;20491;-52
2022/09/06 08:12:30;;;;;;;9.10;4.73;;;;;;;22.26;68.26;98798.69;4938413;28;20321;-52
2022/09/06 08:14:56;;;;;;;7.40;4.37;;;;;;;22.45;68.94;98804.00;4942486;28;20332;-53
2022/09/06 08:17:23;;;;;;;7.77;4.60;;;;;;;22.51;68.10;98803.13;4944870;28;20228;-52
2022/09/06 08:19:50;;;;;;;5.33;4.73;;;;;;;22.57;68.06;98804.06;4940298;28;20235;-51
2022/09/06 08:22:17;;;;;;;9.93;4.97;;;;;;;22.54;67.32;98804.53;4944166;28;20241;-51
2022/09/06 08:24:43;;;;;;;7.53;4.57;;;;;;;22.60;67.89;98816.09;4941823;28;20244;-51
2022/09/06 08:27:10;;;;;;;8.37;4.60;;;;;;;22.51;67.02;98815.63;4946392;28;20693;-52
2022/09/06 08:29:38;;;;;;;12.10;4.87;;;;;;;22.54;66.88;98809.84;4945004;28;20223;-54
2022/09/06 08:32:05;;;;;;;8.83;5.30;;;;;;;22.42;66.99;98810.56;4946034;28;20220;-52
2022/09/06 08:34:32;;;;;;;7.53;5.40;;;;;;;22.24;68.01;98814.06;4942391;28;20240;-51
2022/09/06 08:36:59;;;;;;;10.83;5.57;;;;;;;22.14;68.53;98821.75;4944929;28;20235;-52
2022/09/06 08:39:25;;;;;;;6.40;5.20;;;;;;;22.04;68.75;98824.91;4940986;28;20224;-52
2022/09/06 08:41:57;;;;;;;7.47;4.90;;;;;;;21.71;70.76;98826.06;4943716;28;20300;-53
2022/09/06 08:44:29;;;;;;;10.03;5.20;;;;;;;21.62;70.98;98832.66;4943417;28;20294;-54
2022/09/06 08:46:59;;;;;;;10.70;5.50;;;;;;;21.49;71.95;98834.41;4942761;28;20276;-52
2022/09/06 08:49:30;;;;;;;10.47;5.80;;;;;;;21.44;72.38;98834.25;4940242;28;20263;-54
2022/09/06 08:52:12;;;;;;;9.30;6.00;;;;;;;21.44;72.60;98842.22;4945072;28;20241;-52
2022/09/06 08:54:46;;;;;;;9.33;5.90;;;;;;;21.45;73.16;98841.19;4940812;28;20819;-51
2022/09/06 08:57:31;;;;;;;9.33;6.03;;;;;;;21.46;73.11;98850.78;4943870;28;20242;-51
2022/09/06 09:00:02;;;;;;;13.10;6.80;;;;;;;21.39;72.91;98855.31;4943876;28;20243;-54
2022/09/06 09:02:43;;;;;;;12.93;6.07;;;;;;;21.32;73.51;98852.69;4940613;28;20255;-51
2022/09/06 09:05:20;;;;;;;12.40;6.27;;;;;;;21.31;75.03;98856.38;4944578;28;20743;-52
2022/09/06 09:07:59;;;;;;;10.90;6.30;;;;;;;21.41;74.86;98858.56;4941460;28;20235;-50
2022/09/06 09:10:29;;;;;;;18.57;6.53;;;;;;;21.48;74.53;98863.81;4939767;28;20248;-52
2022/09/06 09:12:57;;;;;;;10.17;6.17;;;;;;;21.59;73.65;98860.47;4943149;28;20243;-51
2022/09/06 09:15:24;;;;;;;9.90;5.47;;;;;;;21.65;73.07;98854.31;4946172;28;21368;-51
2022/09/06 09:17:53;;;;;;;13.40;5.73;;;;;;;21.60;73.40;98845.34;4937842;28;20862;-54
2022/09/06 09:20:21;;;;;;;15.73;6.00;;;;;;;21.63;73.47;98847.59;4943468;28;20238;-51
2022/09/06 09:22:48;;;;;;;10.77;6.30;;;;;;;21.72;73.21;98848.13;4941402;28;20233;-52
2022/09/06 09:25:20;;;;;;;14.37;5.70;;;;;;;21.84;72.72;98854.34;4941962;28;20245;-50
2022/09/06 09:27:49;;;;;;;7.73;5.50;;;;;;;21.92;72.23;98846.09;4940817;28;20262;-55
2022/09/06 09:30:16;;;;;;;14.30;6.17;;;;;;;22.07;72.12;98844.94;4945611;28;20226;-51
2022/09/06 09:32:44;;;;;;;8.27;5.90;;;;;;;22.14;71.32;98840.38;4941010;28;20342;-52
2022/09/06 09:35:23;;;;;;;8.90;5.30;;;;;;;22.34;70.42;98848.09;4943327;28;20230;-50
2022/09/06 09:37:59;;;;;;;9.20;5.50;;;;;;;22.55;69.60;98854.81;4943235;28;20276;-52
2022/09/06 09:40:32;;;;;;;8.93;5.63;;;;;;;22.55;69.64;98848.72;4941246;28;20238;-51
2022/09/06 09:43:13;;;;;;;10.10;5.67;;;;;;;22.87;69.46;98845.81;4943242;28;20225;-52
2022/09/06 09:45:41;;;;;;;14.77;5.50;;;;;;;23.19;68.78;98847.44;4939376;28;20306;-52
2022/09/06 09:48:25;;;;;;;8.20;4.70;;;;;;;23.61;67.39;98842.06;4944656;28;20327;-51
2022/09/06 09:50:54;;;;;;;6.53;4.20;;;;;;;23.87;65.21;98843.44;4940409;28;20724;-51
2022/09/06 09:53:23;;;;;;;9.07;5.10;;;;;;;23.88;64.41;98834.41;4943530;28;20240;-52
2022/09/06 09:55:56;;;;;;;13.70;4.93;;;;;;;24.23;63.63;98842.63;4940225;28;20243;-51
2022/09/06 09:58:42;;;;;;;14.50;4.73;;;;;;;24.55;62.67;98829.66;4938802;28;20741;-50
2022/09/06 10:01:11;;;;;;;10.27;4.10;;;;;;;24.93;62.01;98826.63;4941679;28;20258;-50
2022/09/06 10:03:38;;;;;;;6.83;4.07;;;;;;;25.29;60.86;98827.22;4940636;28;20254;-53
2022/09/06 10:06:11;;;;;;;10.93;4.17;;;;;;;25.37;60.31;98824.16;4942675;28;20237;-53
2022/09/06 10:08:42;;;;;;;8.97;4.70;;;;;;;25.55;60.40;98811.59;4940621;28;20236;-50
2022/09/06 10:11:12;;;;;;;11.03;4.20;;;;;;;25.53;58.08;98822.56;4942879;28;20324;-54
2022/09/06 10:13:40;;;;;;;12.67;4.90;;;;;;;25.44;58.32;98808.78;4939418;28;20248;-53
2022/09/06 10:16:07;;;;;;;9.83;4.90;;;;;;;25.49;58.57;98813.41;4940351;28;20230;-51
2022/09/06 10:18:36;;;;;;;14.77;4.67;;;;;;;25.56;58.54;98807.88;4939592;28;20235;-54
2022/09/06 10:21:05;;;;;;;12.23;4.00;;;;;;;25.60;59.25;98804.47;4942323;28;20232;-53
2022/09/06 10:23:43;;;;;;;7.37;4.17;;;;;;;25.68;58.19;98808.59;4942603;28;20296;-51
2022/09/06 10:26:17;;;;;;;14.40;4.47;;;;;;;25.53;58.05;98801.16;4943221;28;20233;-51
2022/09/06 10:28:44;;;;;;;9.00;4.10;;;;;;;25.38;58.67;98799.06;4939293;28;20580;-51
2022/09/06 10:31:34;;;;;;;12.40;4.90;;;;;;;25.45;59.64;98790.88;4942544;28;20223;-53
2022/09/06 10:34:25;;;;;;;7.20;4.40;;;;;;;25.30;60.31;98792.25;4940238;28;20298;-54
2022/09/06 10:37:02;;;;;;;8.73;4.53;;;;;;;25.25;60.50;98791.38;4938186;28;20338;-51
2022/09/06 10:39:39;;;;;;;9.20;4.60;;;;;;;25.11;60.91;98785.53;4940121;28;20696;-54
2022/09/06 10:42:18;;;;;;;7.43;4.53;;;;;;;24.85;61.49;98799.25;4940880;28;20229;-52
2022/09/06 10:45:02;;;;;;;14.40;5.67;;;;;;;24.49;62.96;98779.09;4929292;28;21045;-51
2022/09/06 10:47:35;;;;;;;11.10;5.20;;;;;;;24.89;62.75;98787.06;4944555;28;20612;-52
2022/09/06 10:50:04;;;;;;;11.97;4.93;;;;;;;24.82;63.00;98786.41;4949735;28;20236;-52
2022/09/06 10:52:36;;;;;;;11.47;5.00;;;;;;;24.94;61.97;98793.53;4946998;28;20704;-50
2022/09/06 10:55:09;;;;;;;10.37;5.40;;;;;;;25.05;61.39;98782.78;4946359;28;20589;-53
2022/09/06 10:57:41;;;;;;;8.07;4.50;;;;;;;25.03;63.04;98776.84;4944508;28;20270;-51
2022/09/06 11:00:12;;;;;;;11.50;4.40;;;;;;;24.98;62.63;98781.31;4938930;28;20725;-51
2022/09/06 11:02:45;;;;;;;9.47;4.90;;;;;;;24.97;61.83;98779.69;4928836;28;20233;-50
2022/09/06 11:05:17;;;;;;;6.63;4.40;;;;;;;24.91;61.70;98773.44;4938938;28;20634;-50
2022/09/06 12:12:02;;;;;;;6.40;1.90;;;;;;;27.73;43.17;98743.09;4946476;28;20301;-52
2022/09/06 12:14:39;;;;;;;6.90;2.00;;;;;;;28.17;41.00;98752.66;4953480;28;20697;-52
2022/09/06 12:21:30;;;;;;;4.68;1.73;;;;;;;28.29;39.64;98747.06;4941007;28;20235;-54
2022/09/06 12:27:50;;;;;;;4.83;1.50;;;;;;;28.33;38.89;98737.44;4950996;28;20231;-55
2022/09/06 12:30:33;;;;;;;2.73;1.50;;;;;;;28.54;38.97;98724.03;4962517;28;20243;-55
2022/09/06 12:33:02;;;;;;;2.77;1.53;;;;;;;28.37;38.35;98727.78;4958020;28;20298;-53
2022/09/06 12:35:33;;;;;;;3.67;1.40;;;;;;;28.55;38.03;98722.97;4959016;28;20231;-57
2022/09/06 12:38:01;;;;;;;3.10;1.60;;;;;;;28.50;37.83;98720.28;4961236;28;20235;-56
2022/09/06 12:40:31;;;;;;;3.22;1.67;;;;;;;28.26;36.83;98726.94;4958281;28;20340;-56
2022/09/06 12:43:02;;;;;;;4.97;1.10;;;;;;;28.43;36.73;98718.66;4961968;28;20239;-53
2022/09/06 12:45:29;;;;;;;3.83;1.50;;;;;;;28.43;36.98;98709.78;4956595;28;20290;-52
2022/09/06 12:48:08;;;;;;;3.30;1.20;;;;;;;28.22;36.74;98711.63;4956193;28;20241;-58
2022/09/06 12:50:35;;;;;;;3.15;1.05;;;;;;;27.93;36.81;98714.75;4954325;28;20226;-53
2022/09/06 12:53:04;;;;;;;4.03;1.37;;;;;;;27.54;38.09;98702.53;4958657;28;20301;-52
2022/09/06 12:55:33;;;;;;;7.10;1.50;;;;;;;27.46;37.88;98697.63;4954903;28;20239;-53
2022/09/06 12:58:03;;;;;;;3.33;1.67;;;;;;;27.79;37.97;98709.88;4960383;28;20242;-53
2022/09/06 13:00:34;;;;;;;6.93;2.00;;;;;;;27.68;38.79;98709.03;4954793;28;20917;-55